METAR Data
IDs: Format: Raw Decoded Include TAF

Data at: 2129 UTC 02 Aug 2021

KFAT 022053Z 32004KT 10SM FEW070 SCT200 35/08 A3000 RMK AO2 SLP154 T03500083
KFAT 021953Z 29003KT 10SM FEW070 FEW200 33/11 A3002 RMK AO2 SLP162 T03330106
KFAT 021853Z 28003KT 10SM FEW200 31/12 A3005 RMK AO2 SLP169 T03110117
KFAT 021553Z 32003KT 10SM FEW080 23/11 A3008 RMK AO2 SLP180 T02280111 $
KFAT 021453Z 30005KT 10SM FEW080 FEW150 21/11 A3008 RMK AO2 SLP180 T02110111 51019 $
KFAT 021353Z 29006KT 10SM FEW100 FEW150 SCT200 20/11 A3006 RMK AO2 SLP175 T02000111 $
KFAT 021253Z 30007KT 10SM FEW150 FEW200 21/10 A3004 RMK AO2 SLP167 T02060100 $
KFAT 021153Z 34004KT 10SM CLR 21/10 A3002 RMK AO2 SLP161 T02110100 10300 20200 53007 $
KFAT 021053Z 33007KT 10SM CLR 22/11 A3001 RMK AO2 SLP158 T02220106 $
KFAT 020953Z 30011KT 10SM CLR 23/11 A3001 RMK AO2 SLP157 T02330106 $
KFAT 020853Z 30009KT 10SM CLR 25/10 A3000 RMK AO2 SLP154 T02500100 53010 $
KFAT 020753Z 32008KT 10SM CLR 27/11 A2999 RMK AO2 SLP150 T02670111 404170228 $
KFAT 020653Z 31009KT 10SM CLR 28/12 A2998 RMK AO2 SLP146 T02830117 $
KFAT 020553Z 30011KT 10SM SCT250 30/13 A2997 RMK AO2 SLP144 T03000128 10417 20300 52020 $
KFAT 020453Z 32009KT 10SM SCT200 33/13 A2995 RMK AO2 WSHFT 0343 SLP139 T03280128 $
KFAT 020403Z 31012KT 10SM FEW100 36/12 A2993 RMK AO2 WSHFT 0343 CB DSNT NE T03560122 $
KFAT 020353Z 31015KT 10SM FEW100 36/12 A2993 RMK AO2 SLP129 CB DSNT NE T03560122 $
KFAT 020253Z 23005KT 10SM FEW100 39/03 A2991 RMK AO2 SLP124 CB DSNT NE CU OMTNS DSNT NE-E SE T03940033 55000 $
KFAT 020153Z 24005KT 10SM FEW100 41/06 A2990 RMK AO2 SLP120 CB DSNT NE CU OMTNS DSNT NE SE T04060056 $
KFAT 020053Z VRB05KT 10SM FEW100 41/07 A2990 RMK AO2 SLP122 CB DSNT N NE CU OMTNS DSNT N NE-E-S T04110067 $
KFAT 012353Z 00000KT 10SM FEW100 40/07 A2991 RMK AO2 SLP124 CU OMTNS DSNT N-E-S MTNS OBSC FU HZ DSNT SE-S T04000067 10411 20306 56020 $
KFAT 012253Z 00000KT 10SM FEW100 41/06 A2993 RMK AO2 SLP131 CU OMTNS DSNT N-E-S MTNS OBSC FU HZ DSNT N NE-E-S T04060061 $
KFAT 012153Z VRB03KT 10SM FEW100 39/06 A2995 RMK AO2 SLP137 CU OMTNS N-E T03890056 $
KFAT 012053Z 00000KT 10SM FEW100 37/07 A2997 RMK AO2 SLP144 CU OMTNS NE-E T03720067 58018 $
KFAT 011953Z VRB03KT 10SM FEW100 36/08 A2999 RMK AO2 SLP151 CU OMTNS NE-E T03560083 $
KFAT 011853Z VRB04KT 10SM FEW100 33/11 A3001 RMK AO2 SLP157 CU OMTNS NE-E T03280111 $
KFAT 011753Z 21007KT 10SM FEW100 30/13 A3003 RMK AO2 SLP163 CU OMTNS NE-E T03000128 10306 20228 51002 $
KFAT 011653Z 17007KT 10SM FEW100 28/12 A3002 RMK AO2 SLP162 CU OMTNS NE T02830122 $
KFAT 011553Z 15007KT 10SM FEW200 27/13 A3003 RMK AO2 SLP163 T02670128 $
KFAT 011453Z 00000KT 10SM SCT200 24/12 A3002 RMK AO2 SLP160 T02440122 51017 $
KFAT 011353Z 26003KT 10SM SCT100 SCT200 23/12 A3001 RMK AO2 SLP157 T02280122 $
KFAT 011253Z 29003KT 10SM FEW100 SCT200 23/12 A2998 RMK AO2 SLP149 T02330117 $
KFAT 011153Z 29004KT 10SM SCT200 24/12 A2997 RMK AO2 SLP143 T02390117 10306 20239 53004 $
KFAT 011053Z 34003KT 10SM SCT200 24/12 A2996 RMK AO2 SLP141 T02440117 $
KFAT 010953Z 31006KT 10SM SCT200 25/12 A2996 RMK AO2 SLP140 T02500117 $